sensor_id;sensor_type;location;lat;lon;timestamp;P1;durP1;ratioP1;P2;durP2;ratioP2
53775;SDS011;44276;49.534;6.378;2023-08-31T00:00:03;33.55;;;12.15;;
53775;SDS011;44276;49.534;6.378;2023-08-31T00:02:35;28.90;;;10.00;;
53775;SDS011;44276;49.534;6.378;2023-08-31T00:05:04;32.85;;;11.40;;
53775;SDS011;44276;49.534;6.378;2023-08-31T00:07:32;23.63;;;9.75;;
53775;SDS011;44276;49.534;6.378;2023-08-31T00:10:02;24.55;;;11.25;;
53775;SDS011;44276;49.534;6.378;2023-08-31T00:12:35;28.48;;;11.88;;
53775;SDS011;44276;49.534;6.378;2023-08-31T00:15:04;35.20;;;11.93;;
53775;SDS011;44276;49.534;6.378;2023-08-31T00:17:35;26.77;;;10.70;;
53775;SDS011;44276;49.534;6.378;2023-08-31T00:20:04;24.98;;;11.20;;
53775;SDS011;44276;49.534;6.378;2023-08-31T00:22:38;32.63;;;11.52;;
53775;SDS011;44276;49.534;6.378;2023-08-31T00:25:07;28.77;;;10.73;;
53775;SDS011;44276;49.534;6.378;2023-08-31T00:27:36;26.80;;;10.68;;
53775;SDS011;44276;49.534;6.378;2023-08-31T00:30:04;25.90;;;10.18;;
53775;SDS011;44276;49.534;6.378;2023-08-31T00:32:34;21.58;;;10.05;;
53775;SDS011;44276;49.534;6.378;2023-08-31T00:35:02;44.40;;;11.77;;
53775;SDS011;44276;49.534;6.378;2023-08-31T00:37:31;28.77;;;10.45;;
53775;SDS011;44276;49.534;6.378;2023-08-31T00:40:00;32.38;;;10.50;;
53775;SDS011;44276;49.534;6.378;2023-08-31T00:42:32;20.88;;;8.98;;
53775;SDS011;44276;49.534;6.378;2023-08-31T00:45:00;26.77;;;10.10;;
53775;SDS011;44276;49.534;6.378;2023-08-31T00:47:28;44.65;;;10.57;;
53775;SDS011;44276;49.534;6.378;2023-08-31T00:49:56;27.95;;;8.88;;
53775;SDS011;44276;49.534;6.378;2023-08-31T00:52:26;26.42;;;10.00;;
53775;SDS011;44276;49.534;6.378;2023-08-31T00:54:55;22.05;;;10.02;;
53775;SDS011;44276;49.534;6.378;2023-08-31T00:57:23;23.55;;;9.38;;
53775;SDS011;44276;49.534;6.378;2023-08-31T00:59:54;23.17;;;9.20;;
53775;SDS011;44276;49.534;6.378;2023-08-31T01:02:22;29.23;;;10.75;;
53775;SDS011;44276;49.534;6.378;2023-08-31T01:05:11;27.80;;;11.02;;
53775;SDS011;44276;49.534;6.378;2023-08-31T01:08:03;31.52;;;10.25;;
53775;SDS011;44276;49.534;6.378;2023-08-31T01:10:47;24.83;;;10.20;;
53775;SDS011;44276;49.534;6.378;2023-08-31T01:13:32;23.60;;;8.25;;
53775;SDS011;44276;49.534;6.378;2023-08-31T01:16:06;23.92;;;9.15;;
53775;SDS011;44276;49.534;6.378;2023-08-31T01:18:36;27.98;;;10.20;;
53775;SDS011;44276;49.534;6.378;2023-08-31T01:21:09;20.98;;;9.55;;
53775;SDS011;44276;49.534;6.378;2023-08-31T01:23:52;21.35;;;8.25;;
53775;SDS011;44276;49.534;6.378;2023-08-31T01:26:22;27.95;;;9.20;;
53775;SDS011;44276;49.534;6.378;2023-08-31T01:28:52;17.65;;;8.38;;
53775;SDS011;44276;49.534;6.378;2023-08-31T01:31:22;22.10;;;9.35;;
53775;SDS011;44276;49.534;6.378;2023-08-31T01:33:50;26.00;;;10.30;;
53775;SDS011;44276;49.534;6.378;2023-08-31T01:36:20;25.17;;;9.68;;
53775;SDS011;44276;49.534;6.378;2023-08-31T01:38:55;27.40;;;8.77;;
53775;SDS011;44276;49.534;6.378;2023-08-31T01:41:38;24.55;;;9.68;;
53775;SDS011;44276;49.534;6.378;2023-08-31T01:44:13;21.85;;;9.77;;
53775;SDS011;44276;49.534;6.378;2023-08-31T01:46:45;39.40;;;11.23;;
53775;SDS011;44276;49.534;6.378;2023-08-31T01:49:14;31.67;;;10.02;;
53775;SDS011;44276;49.534;6.378;2023-08-31T01:51:42;25.40;;;9.63;;
53775;SDS011;44276;49.534;6.378;2023-08-31T01:54:11;25.75;;;9.55;;
53775;SDS011;44276;49.534;6.378;2023-08-31T01:56:40;25.58;;;11.15;;
53775;SDS011;44276;49.534;6.378;2023-08-31T01:59:08;30.80;;;10.82;;
53775;SDS011;44276;49.534;6.378;2023-08-31T02:01:36;27.35;;;9.98;;
53775;SDS011;44276;49.534;6.378;2023-08-31T02:04:04;19.95;;;9.25;;
53775;SDS011;44276;49.534;6.378;2023-08-31T02:06:33;22.55;;;9.90;;
53775;SDS011;44276;49.534;6.378;2023-08-31T02:09:01;21.25;;;9.02;;
53775;SDS011;44276;49.534;6.378;2023-08-31T02:11:30;27.42;;;9.60;;
53775;SDS011;44276;49.534;6.378;2023-08-31T02:14:02;26.40;;;8.30;;
53775;SDS011;44276;49.534;6.378;2023-08-31T02:16:31;22.67;;;8.52;;
53775;SDS011;44276;49.534;6.378;2023-08-31T02:18:59;24.08;;;9.05;;
53775;SDS011;44276;49.534;6.378;2023-08-31T02:21:27;27.35;;;8.55;;
53775;SDS011;44276;49.534;6.378;2023-08-31T02:23:55;28.42;;;8.65;;
53775;SDS011;44276;49.534;6.378;2023-08-31T02:26:23;25.52;;;8.77;;
53775;SDS011;44276;49.534;6.378;2023-08-31T02:28:53;28.02;;;9.80;;
53775;SDS011;44276;49.534;6.378;2023-08-31T02:31:21;21.35;;;8.68;;
53775;SDS011;44276;49.534;6.378;2023-08-31T02:33:49;23.17;;;8.32;;
53775;SDS011;44276;49.534;6.378;2023-08-31T02:36:19;23.65;;;8.77;;
53775;SDS011;44276;49.534;6.378;2023-08-31T02:38:47;22.33;;;8.98;;
53775;SDS011;44276;49.534;6.378;2023-08-31T02:41:16;21.98;;;8.63;;
53775;SDS011;44276;49.534;6.378;2023-08-31T02:43:44;22.17;;;9.32;;
53775;SDS011;44276;49.534;6.378;2023-08-31T02:46:14;22.92;;;9.30;;
53775;SDS011;44276;49.534;6.378;2023-08-31T02:48:43;21.58;;;8.20;;
53775;SDS011;44276;49.534;6.378;2023-08-31T02:51:11;26.00;;;8.80;;
53775;SDS011;44276;49.534;6.378;2023-08-31T02:53:40;26.63;;;9.88;;
53775;SDS011;44276;49.534;6.378;2023-08-31T02:56:08;20.25;;;7.53;;
53775;SDS011;44276;49.534;6.378;2023-08-31T02:58:36;28.75;;;9.25;;
53775;SDS011;44276;49.534;6.378;2023-08-31T03:01:06;26.92;;;9.75;;
53775;SDS011;44276;49.534;6.378;2023-08-31T03:03:39;18.80;;;7.22;;
53775;SDS011;44276;49.534;6.378;2023-08-31T03:06:08;20.30;;;7.72;;
53775;SDS011;44276;49.534;6.378;2023-08-31T03:08:37;20.85;;;8.43;;
53775;SDS011;44276;49.534;6.378;2023-08-31T03:11:06;25.40;;;9.32;;
53775;SDS011;44276;49.534;6.378;2023-08-31T03:13:34;20.92;;;7.57;;
53775;SDS011;44276;49.534;6.378;2023-08-31T03:16:03;19.10;;;8.02;;
53775;SDS011;44276;49.534;6.378;2023-08-31T03:18:31;21.70;;;8.27;;
53775;SDS011;44276;49.534;6.378;2023-08-31T03:21:00;34.92;;;11.02;;
53775;SDS011;44276;49.534;6.378;2023-08-31T03:23:29;29.10;;;9.85;;
53775;SDS011;44276;49.534;6.378;2023-08-31T03:25:57;30.67;;;9.32;;
53775;SDS011;44276;49.534;6.378;2023-08-31T03:28:25;27.85;;;8.48;;
53775;SDS011;44276;49.534;6.378;2023-08-31T03:30:54;24.83;;;7.40;;
53775;SDS011;44276;49.534;6.378;2023-08-31T03:33:22;24.55;;;9.13;;
53775;SDS011;44276;49.534;6.378;2023-08-31T03:35:50;19.65;;;8.18;;
53775;SDS011;44276;49.534;6.378;2023-08-31T03:38:20;25.00;;;10.05;;
53775;SDS011;44276;49.534;6.378;2023-08-31T03:40:54;20.77;;;9.15;;
53775;SDS011;44276;49.534;6.378;2023-08-31T03:43:23;25.65;;;9.07;;
53775;SDS011;44276;49.534;6.378;2023-08-31T03:45:55;20.25;;;8.10;;
53775;SDS011;44276;49.534;6.378;2023-08-31T03:48:24;30.25;;;8.80;;
53775;SDS011;44276;49.534;6.378;2023-08-31T03:50:53;32.90;;;10.13;;
53775;SDS011;44276;49.534;6.378;2023-08-31T03:53:23;31.40;;;10.43;;
53775;SDS011;44276;49.534;6.378;2023-08-31T03:55:51;31.95;;;12.02;;
53775;SDS011;44276;49.534;6.378;2023-08-31T03:58:19;26.33;;;10.10;;
53775;SDS011;44276;49.534;6.378;2023-08-31T04:00:48;34.40;;;11.10;;
53775;SDS011;44276;49.534;6.378;2023-08-31T04:03:17;32.80;;;13.48;;
53775;SDS011;44276;49.534;6.378;2023-08-31T04:05:46;34.05;;;13.13;;
53775;SDS011;44276;49.534;6.378;2023-08-31T04:08:14;31.30;;;13.38;;
53775;SDS011;44276;49.534;6.378;2023-08-31T04:10:43;33.78;;;13.27;;
53775;SDS011;44276;49.534;6.378;2023-08-31T04:13:11;34.60;;;14.05;;
53775;SDS011;44276;49.534;6.378;2023-08-31T04:15:40;42.60;;;14.55;;
53775;SDS011;44276;49.534;6.378;2023-08-31T04:18:08;35.70;;;13.65;;
53775;SDS011;44276;49.534;6.378;2023-08-31T04:20:36;45.00;;;14.38;;
53775;SDS011;44276;49.534;6.378;2023-08-31T04:23:05;27.95;;;11.77;;
53775;SDS011;44276;49.534;6.378;2023-08-31T04:25:33;29.13;;;11.82;;
53775;SDS011;44276;49.534;6.378;2023-08-31T04:28:03;33.88;;;13.60;;
53775;SDS011;44276;49.534;6.378;2023-08-31T04:30:31;36.10;;;13.13;;
53775;SDS011;44276;49.534;6.378;2023-08-31T04:33:00;36.05;;;14.43;;
53775;SDS011;44276;49.534;6.378;2023-08-31T04:35:30;38.45;;;14.35;;
53775;SDS011;44276;49.534;6.378;2023-08-31T04:37:59;36.95;;;14.38;;
53775;SDS011;44276;49.534;6.378;2023-08-31T04:40:27;35.72;;;14.18;;
53775;SDS011;44276;49.534;6.378;2023-08-31T04:42:57;40.17;;;15.00;;
53775;SDS011;44276;49.534;6.378;2023-08-31T04:45:26;39.30;;;13.48;;
53775;SDS011;44276;49.534;6.378;2023-08-31T04:47:56;42.05;;;14.77;;
53775;SDS011;44276;49.534;6.378;2023-08-31T04:50:25;42.78;;;14.40;;
53775;SDS011;44276;49.534;6.378;2023-08-31T04:52:53;36.90;;;16.58;;
53775;SDS011;44276;49.534;6.378;2023-08-31T04:55:21;40.10;;;14.10;;
53775;SDS011;44276;49.534;6.378;2023-08-31T04:57:49;35.90;;;14.55;;
53775;SDS011;44276;49.534;6.378;2023-08-31T05:00:18;34.85;;;15.25;;
53775;SDS011;44276;49.534;6.378;2023-08-31T05:02:51;37.85;;;14.55;;
53775;SDS011;44276;49.534;6.378;2023-08-31T05:05:19;39.75;;;13.48;;
53775;SDS011;44276;49.534;6.378;2023-08-31T05:07:47;36.20;;;15.23;;
53775;SDS011;44276;49.534;6.378;2023-08-31T05:10:16;42.35;;;13.65;;
53775;SDS011;44276;49.534;6.378;2023-08-31T05:12:44;39.85;;;14.75;;
53775;SDS011;44276;49.534;6.378;2023-08-31T05:15:12;47.83;;;16.08;;
53775;SDS011;44276;49.534;6.378;2023-08-31T05:17:40;43.95;;;15.23;;
53775;SDS011;44276;49.534;6.378;2023-08-31T05:20:10;29.45;;;13.65;;
53775;SDS011;44276;49.534;6.378;2023-08-31T05:22:39;38.70;;;13.32;;
53775;SDS011;44276;49.534;6.378;2023-08-31T05:25:07;41.42;;;15.15;;
53775;SDS011;44276;49.534;6.378;2023-08-31T05:27:36;34.58;;;14.70;;
53775;SDS011;44276;49.534;6.378;2023-08-31T05:30:04;46.67;;;17.63;;
53775;SDS011;44276;49.534;6.378;2023-08-31T05:32:34;48.58;;;16.63;;
53775;SDS011;44276;49.534;6.378;2023-08-31T05:35:02;42.20;;;16.30;;
53775;SDS011;44276;49.534;6.378;2023-08-31T05:37:33;47.42;;;15.27;;
53775;SDS011;44276;49.534;6.378;2023-08-31T05:40:02;35.45;;;16.90;;
53775;SDS011;44276;49.534;6.378;2023-08-31T05:42:33;44.65;;;17.50;;
53775;SDS011;44276;49.534;6.378;2023-08-31T05:45:01;50.60;;;19.52;;
53775;SDS011;44276;49.534;6.378;2023-08-31T05:47:30;45.78;;;17.55;;
53775;SDS011;44276;49.534;6.378;2023-08-31T05:49:59;36.95;;;18.02;;
53775;SDS011;44276;49.534;6.378;2023-08-31T05:52:27;42.95;;;18.63;;
53775;SDS011;44276;49.534;6.378;2023-08-31T05:54:56;49.67;;;19.38;;
53775;SDS011;44276;49.534;6.378;2023-08-31T05:57:25;33.03;;;16.02;;
53775;SDS011;44276;49.534;6.378;2023-08-31T05:59:55;32.33;;;16.17;;
53775;SDS011;44276;49.534;6.378;2023-08-31T06:02:23;28.48;;;14.35;;
53775;SDS011;44276;49.534;6.378;2023-08-31T06:04:51;18.77;;;12.48;;
53775;SDS011;44276;49.534;6.378;2023-08-31T06:07:19;25.25;;;12.80;;
53775;SDS011;44276;49.534;6.378;2023-08-31T06:09:48;22.27;;;12.32;;
53775;SDS011;44276;49.534;6.378;2023-08-31T06:12:17;26.10;;;13.15;;
53775;SDS011;44276;49.534;6.378;2023-08-31T06:14:45;17.42;;;10.90;;
53775;SDS011;44276;49.534;6.378;2023-08-31T06:17:14;20.50;;;10.70;;
53775;SDS011;44276;49.534;6.378;2023-08-31T06:19:42;23.45;;;10.48;;
53775;SDS011;44276;49.534;6.378;2023-08-31T06:22:10;20.13;;;9.95;;
53775;SDS011;44276;49.534;6.378;2023-08-31T06:24:38;21.13;;;10.18;;
53775;SDS011;44276;49.534;6.378;2023-08-31T06:27:08;24.05;;;9.40;;
53775;SDS011;44276;49.534;6.378;2023-08-31T06:29:38;15.13;;;7.72;;
53775;SDS011;44276;49.534;6.378;2023-08-31T06:32:06;10.93;;;6.55;;
53775;SDS011;44276;49.534;6.378;2023-08-31T06:34:34;8.10;;;5.80;;
53775;SDS011;44276;49.534;6.378;2023-08-31T06:37:02;10.40;;;5.93;;
53775;SDS011;44276;49.534;6.378;2023-08-31T06:39:31;11.15;;;4.82;;
53775;SDS011;44276;49.534;6.378;2023-08-31T06:42:00;7.05;;;4.72;;
53775;SDS011;44276;49.534;6.378;2023-08-31T06:44:28;15.63;;;4.22;;
53775;SDS011;44276;49.534;6.378;2023-08-31T06:46:58;5.22;;;2.58;;
53775;SDS011;44276;49.534;6.378;2023-08-31T06:49:27;3.58;;;2.08;;
53775;SDS011;44276;49.534;6.378;2023-08-31T06:51:56;4.10;;;1.90;;
53775;SDS011;44276;49.534;6.378;2023-08-31T06:54:24;7.28;;;1.95;;
53775;SDS011;44276;49.534;6.378;2023-08-31T06:56:52;2.70;;;1.65;;
53775;SDS011;44276;49.534;6.378;2023-08-31T06:59:20;4.47;;;1.20;;
53775;SDS011;44276;49.534;6.378;2023-08-31T07:01:49;3.97;;;2.05;;
53775;SDS011;44276;49.534;6.378;2023-08-31T07:04:18;2.97;;;1.60;;
53775;SDS011;44276;49.534;6.378;2023-08-31T07:06:46;4.93;;;1.67;;
53775;SDS011;44276;49.534;6.378;2023-08-31T07:09:15;6.15;;;1.90;;
53775;SDS011;44276;49.534;6.378;2023-08-31T07:11:44;5.00;;;2.35;;
53775;SDS011;44276;49.534;6.378;2023-08-31T07:14:12;6.82;;;1.52;;
53775;SDS011;44276;49.534;6.378;2023-08-31T07:16:40;3.50;;;1.27;;
53775;SDS011;44276;49.534;6.378;2023-08-31T07:19:08;7.97;;;1.58;;
53775;SDS011;44276;49.534;6.378;2023-08-31T07:21:38;6.93;;;2.42;;
53775;SDS011;44276;49.534;6.378;2023-08-31T07:24:06;3.53;;;1.60;;
53775;SDS011;44276;49.534;6.378;2023-08-31T07:26:35;8.07;;;2.00;;
53775;SDS011;44276;49.534;6.378;2023-08-31T07:29:03;6.18;;;2.10;;
53775;SDS011;44276;49.534;6.378;2023-08-31T07:31:32;6.65;;;2.15;;
53775;SDS011;44276;49.534;6.378;2023-08-31T07:34:00;3.70;;;1.42;;
53775;SDS011;44276;49.534;6.378;2023-08-31T07:36:30;2.83;;;1.33;;
53775;SDS011;44276;49.534;6.378;2023-08-31T07:38:59;2.85;;;1.35;;
53775;SDS011;44276;49.534;6.378;2023-08-31T07:41:30;3.58;;;1.48;;
53775;SDS011;44276;49.534;6.378;2023-08-31T07:43:58;5.07;;;1.25;;
53775;SDS011;44276;49.534;6.378;2023-08-31T07:46:30;3.97;;;1.30;;
53775;SDS011;44276;49.534;6.378;2023-08-31T07:48:59;5.07;;;1.20;;
53775;SDS011;44276;49.534;6.378;2023-08-31T07:51:29;6.10;;;2.53;;
53775;SDS011;44276;49.534;6.378;2023-08-31T07:53:59;4.38;;;1.58;;
53775;SDS011;44276;49.534;6.378;2023-08-31T07:56:30;11.48;;;1.63;;
53775;SDS011;44276;49.534;6.378;2023-08-31T07:58:58;8.73;;;2.47;;
53775;SDS011;44276;49.534;6.378;2023-08-31T08:01:26;4.20;;;1.23;;
53775;SDS011;44276;49.534;6.378;2023-08-31T08:03:55;8.75;;;3.30;;
53775;SDS011;44276;49.534;6.378;2023-08-31T08:06:23;7.07;;;1.90;;
53775;SDS011;44276;49.534;6.378;2023-08-31T08:08:52;5.68;;;2.20;;
53775;SDS011;44276;49.534;6.378;2023-08-31T08:11:22;6.60;;;1.60;;
53775;SDS011;44276;49.534;6.378;2023-08-31T08:13:50;5.68;;;2.50;;
53775;SDS011;44276;49.534;6.378;2023-08-31T08:16:18;8.77;;;1.63;;
53775;SDS011;44276;49.534;6.378;2023-08-31T08:18:46;6.00;;;1.55;;
53775;SDS011;44276;49.534;6.378;2023-08-31T08:21:17;4.78;;;1.45;;
53775;SDS011;44276;49.534;6.378;2023-08-31T08:23:45;5.75;;;2.22;;
53775;SDS011;44276;49.534;6.378;2023-08-31T08:26:13;4.00;;;1.38;;
53775;SDS011;44276;49.534;6.378;2023-08-31T08:28:43;2.67;;;1.38;;
53775;SDS011;44276;49.534;6.378;2023-08-31T08:31:12;4.78;;;1.70;;
53775;SDS011;44276;49.534;6.378;2023-08-31T08:33:40;7.70;;;2.40;;
53775;SDS011;44276;49.534;6.378;2023-08-31T08:36:08;5.57;;;1.58;;
53775;SDS011;44276;49.534;6.378;2023-08-31T08:38:36;4.45;;;1.45;;
53775;SDS011;44276;49.534;6.378;2023-08-31T08:41:04;4.88;;;2.25;;
53775;SDS011;44276;49.534;6.378;2023-08-31T08:43:33;3.33;;;1.02;;
53775;SDS011;44276;49.534;6.378;2023-08-31T08:46:05;5.10;;;1.13;;
53775;SDS011;44276;49.534;6.378;2023-08-31T08:48:34;4.95;;;1.70;;
53775;SDS011;44276;49.534;6.378;2023-08-31T08:51:05;5.03;;;1.98;;
53775;SDS011;44276;49.534;6.378;2023-08-31T08:53:35;5.80;;;1.35;;
53775;SDS011;44276;49.534;6.378;2023-08-31T08:56:04;6.80;;;1.52;;
53775;SDS011;44276;49.534;6.378;2023-08-31T08:58:32;8.48;;;2.20;;
53775;SDS011;44276;49.534;6.378;2023-08-31T09:01:00;4.07;;;1.50;;
53775;SDS011;44276;49.534;6.378;2023-08-31T09:03:35;4.47;;;1.45;;
53775;SDS011;44276;49.534;6.378;2023-08-31T09:06:04;5.70;;;1.33;;
53775;SDS011;44276;49.534;6.378;2023-08-31T09:08:35;3.75;;;1.23;;
53775;SDS011;44276;49.534;6.378;2023-08-31T09:11:03;5.40;;;1.73;;
53775;SDS011;44276;49.534;6.378;2023-08-31T09:13:32;7.32;;;1.58;;
53775;SDS011;44276;49.534;6.378;2023-08-31T09:16:00;6.53;;;2.60;;
53775;SDS011;44276;49.534;6.378;2023-08-31T09:18:29;4.45;;;1.48;;
53775;SDS011;44276;49.534;6.378;2023-08-31T09:21:00;3.67;;;1.20;;
53775;SDS011;44276;49.534;6.378;2023-08-31T09:23:29;5.13;;;1.10;;
53775;SDS011;44276;49.534;6.378;2023-08-31T09:25:57;4.05;;;1.38;;
53775;SDS011;44276;49.534;6.378;2023-08-31T09:28:26;4.88;;;1.23;;
53775;SDS011;44276;49.534;6.378;2023-08-31T09:31:03;8.77;;;1.50;;
53775;SDS011;44276;49.534;6.378;2023-08-31T09:33:34;3.22;;;1.48;;
53775;SDS011;44276;49.534;6.378;2023-08-31T09:36:06;6.30;;;1.08;;
53775;SDS011;44276;49.534;6.378;2023-08-31T09:38:40;8.65;;;1.90;;
53775;SDS011;44276;49.534;6.378;2023-08-31T09:41:10;8.30;;;1.50;;
53775;SDS011;44276;49.534;6.378;2023-08-31T09:43:38;2.85;;;1.23;;
53775;SDS011;44276;49.534;6.378;2023-08-31T09:46:07;2.85;;;1.23;;
53775;SDS011;44276;49.534;6.378;2023-08-31T09:48:37;5.78;;;1.27;;
53775;SDS011;44276;49.534;6.378;2023-08-31T09:51:11;4.45;;;1.02;;
53775;SDS011;44276;49.534;6.378;2023-08-31T09:53:43;3.60;;;1.58;;
53775;SDS011;44276;49.534;6.378;2023-08-31T09:56:18;8.38;;;1.70;;
53775;SDS011;44276;49.534;6.378;2023-08-31T09:58:50;4.05;;;1.35;;
53775;SDS011;44276;49.534;6.378;2023-08-31T10:01:19;6.35;;;1.80;;
53775;SDS011;44276;49.534;6.378;2023-08-31T10:03:55;3.95;;;1.42;;
53775;SDS011;44276;49.534;6.378;2023-08-31T10:06:27;4.20;;;1.00;;
53775;SDS011;44276;49.534;6.378;2023-08-31T10:08:57;4.70;;;1.05;;
53775;SDS011;44276;49.534;6.378;2023-08-31T10:11:25;3.88;;;0.90;;
53775;SDS011;44276;49.534;6.378;2023-08-31T10:13:54;5.65;;;1.73;;
53775;SDS011;44276;49.534;6.378;2023-08-31T10:16:25;2.63;;;1.00;;
53775;SDS011;44276;49.534;6.378;2023-08-31T10:18:55;7.55;;;1.95;;
53775;SDS011;44276;49.534;6.378;2023-08-31T10:21:24;2.08;;;1.42;;
53775;SDS011;44276;49.534;6.378;2023-08-31T10:23:54;5.90;;;1.48;;
53775;SDS011;44276;49.534;6.378;2023-08-31T10:26:23;3.60;;;0.73;;
53775;SDS011;44276;49.534;6.378;2023-08-31T10:28:52;5.55;;;1.90;;
53775;SDS011;44276;49.534;6.378;2023-08-31T10:31:22;4.20;;;1.42;;
53775;SDS011;44276;49.534;6.378;2023-08-31T10:33:54;10.55;;;2.63;;
53775;SDS011;44276;49.534;6.378;2023-08-31T10:36:34;5.82;;;1.67;;
53775;SDS011;44276;49.534;6.378;2023-08-31T10:39:11;9.38;;;1.92;;
53775;SDS011;44276;49.534;6.378;2023-08-31T10:41:42;5.85;;;1.25;;
53775;SDS011;44276;49.534;6.378;2023-08-31T10:44:21;6.95;;;2.03;;
53775;SDS011;44276;49.534;6.378;2023-08-31T10:46:51;4.68;;;1.10;;
53775;SDS011;44276;49.534;6.378;2023-08-31T10:49:21;8.38;;;2.28;;
53775;SDS011;44276;49.534;6.378;2023-08-31T10:51:54;4.18;;;0.95;;
53775;SDS011;44276;49.534;6.378;2023-08-31T10:54:25;4.28;;;1.67;;
53775;SDS011;44276;49.534;6.378;2023-08-31T10:57:04;5.95;;;1.67;;
53775;SDS011;44276;49.534;6.378;2023-08-31T10:59:43;3.22;;;1.20;;
53775;SDS011;44276;49.534;6.378;2023-08-31T11:02:29;7.47;;;2.05;;
53775;SDS011;44276;49.534;6.378;2023-08-31T11:05:10;6.00;;;1.33;;
53775;SDS011;44276;49.534;6.378;2023-08-31T11:07:41;7.40;;;2.65;;
53775;SDS011;44276;49.534;6.378;2023-08-31T11:10:13;2.35;;;1.17;;
53775;SDS011;44276;49.534;6.378;2023-08-31T11:12:45;4.07;;;1.73;;
53775;SDS011;44276;49.534;6.378;2023-08-31T11:15:15;8.43;;;1.42;;
53775;SDS011;44276;49.534;6.378;2023-08-31T11:17:46;8.32;;;1.20;;
53775;SDS011;44276;49.534;6.378;2023-08-31T11:20:18;3.40;;;1.42;;
53775;SDS011;44276;49.534;6.378;2023-08-31T11:22:48;8.85;;;2.65;;
53775;SDS011;44276;49.534;6.378;2023-08-31T11:25:20;5.82;;;1.10;;
53775;SDS011;44276;49.534;6.378;2023-08-31T11:27:54;5.80;;;1.83;;
53775;SDS011;44276;49.534;6.378;2023-08-31T11:30:24;7.05;;;1.98;;
53775;SDS011;44276;49.534;6.378;2023-08-31T11:32:53;7.00;;;1.88;;
53775;SDS011;44276;49.534;6.378;2023-08-31T11:35:22;8.48;;;1.33;;
53775;SDS011;44276;49.534;6.378;2023-08-31T11:37:51;7.30;;;1.55;;
53775;SDS011;44276;49.534;6.378;2023-08-31T11:40:25;7.32;;;1.67;;
53775;SDS011;44276;49.534;6.378;2023-08-31T11:42:53;5.03;;;1.80;;
53775;SDS011;44276;49.534;6.378;2023-08-31T11:45:22;12.48;;;1.67;;
53775;SDS011;44276;49.534;6.378;2023-08-31T11:47:51;4.80;;;1.55;;
53775;SDS011;44276;49.534;6.378;2023-08-31T11:50:22;6.63;;;1.30;;
53775;SDS011;44276;49.534;6.378;2023-08-31T11:52:53;3.88;;;1.60;;
53775;SDS011;44276;49.534;6.378;2023-08-31T11:55:22;5.00;;;1.77;;
53775;SDS011;44276;49.534;6.378;2023-08-31T11:57:52;5.05;;;1.35;;
53775;SDS011;44276;49.534;6.378;2023-08-31T12:00:22;4.00;;;1.73;;
53775;SDS011;44276;49.534;6.378;2023-08-31T12:02:57;4.28;;;1.73;;
53775;SDS011;44276;49.534;6.378;2023-08-31T12:05:26;7.38;;;1.67;;
53775;SDS011;44276;49.534;6.378;2023-08-31T12:07:54;6.63;;;1.38;;
53775;SDS011;44276;49.534;6.378;2023-08-31T12:10:23;7.57;;;1.42;;
53775;SDS011;44276;49.534;6.378;2023-08-31T12:12:56;8.52;;;1.60;;
53775;SDS011;44276;49.534;6.378;2023-08-31T12:15:37;5.55;;;1.17;;
53775;SDS011;44276;49.534;6.378;2023-08-31T12:18:08;5.15;;;1.95;;
53775;SDS011;44276;49.534;6.378;2023-08-31T12:20:42;5.25;;;1.67;;
53775;SDS011;44276;49.534;6.378;2023-08-31T12:23:11;5.38;;;1.70;;
53775;SDS011;44276;49.534;6.378;2023-08-31T12:25:45;5.45;;;1.67;;
53775;SDS011;44276;49.534;6.378;2023-08-31T12:28:16;5.97;;;1.60;;
53775;SDS011;44276;49.534;6.378;2023-08-31T12:30:47;5.18;;;1.95;;
53775;SDS011;44276;49.534;6.378;2023-08-31T12:33:16;10.98;;;1.92;;
53775;SDS011;44276;49.534;6.378;2023-08-31T12:35:46;7.07;;;2.38;;
53775;SDS011;44276;49.534;6.378;2023-08-31T12:38:15;4.88;;;1.90;;
53775;SDS011;44276;49.534;6.378;2023-08-31T12:40:44;10.55;;;2.90;;
53775;SDS011;44276;49.534;6.378;2023-08-31T12:43:12;10.68;;;1.45;;
53775;SDS011;44276;49.534;6.378;2023-08-31T12:45:44;12.43;;;1.90;;
53775;SDS011;44276;49.534;6.378;2023-08-31T12:48:12;3.97;;;1.40;;
53775;SDS011;44276;49.534;6.378;2023-08-31T12:50:40;8.48;;;1.98;;
53775;SDS011;44276;49.534;6.378;2023-08-31T12:53:09;8.43;;;2.15;;
53775;SDS011;44276;49.534;6.378;2023-08-31T12:55:37;7.28;;;1.55;;
53775;SDS011;44276;49.534;6.378;2023-08-31T12:58:05;5.28;;;1.77;;
53775;SDS011;44276;49.534;6.378;2023-08-31T13:00:34;5.80;;;1.80;;
53775;SDS011;44276;49.534;6.378;2023-08-31T13:03:04;5.97;;;1.42;;
53775;SDS011;44276;49.534;6.378;2023-08-31T13:05:33;4.40;;;1.38;;
53775;SDS011;44276;49.534;6.378;2023-08-31T13:08:01;4.38;;;1.75;;
53775;SDS011;44276;49.534;6.378;2023-08-31T13:10:31;4.20;;;1.17;;
53775;SDS011;44276;49.534;6.378;2023-08-31T13:12:59;5.47;;;1.33;;
53775;SDS011;44276;49.534;6.378;2023-08-31T13:15:27;7.22;;;2.00;;
53775;SDS011;44276;49.534;6.378;2023-08-31T13:17:56;4.18;;;1.38;;
53775;SDS011;44276;49.534;6.378;2023-08-31T13:20:25;7.38;;;2.20;;
53775;SDS011;44276;49.534;6.378;2023-08-31T13:22:54;4.28;;;1.65;;
53775;SDS011;44276;49.534;6.378;2023-08-31T13:25:22;4.13;;;1.60;;
53775;SDS011;44276;49.534;6.378;2023-08-31T13:27:53;5.22;;;1.65;;
53775;SDS011;44276;49.534;6.378;2023-08-31T13:30:21;6.00;;;1.65;;
53775;SDS011;44276;49.534;6.378;2023-08-31T13:32:51;5.20;;;1.65;;
53775;SDS011;44276;49.534;6.378;2023-08-31T13:35:19;6.10;;;1.58;;
53775;SDS011;44276;49.534;6.378;2023-08-31T13:37:49;9.82;;;1.98;;
53775;SDS011;44276;49.534;6.378;2023-08-31T13:40:17;11.73;;;2.75;;
53775;SDS011;44276;49.534;6.378;2023-08-31T13:42:49;3.35;;;1.92;;
53775;SDS011;44276;49.534;6.378;2023-08-31T13:45:23;7.07;;;1.83;;
53775;SDS011;44276;49.534;6.378;2023-08-31T13:47:51;7.80;;;3.05;;
53775;SDS011;44276;49.534;6.378;2023-08-31T13:50:19;5.05;;;2.55;;
53775;SDS011;44276;49.534;6.378;2023-08-31T13:52:49;7.00;;;1.67;;
53775;SDS011;44276;49.534;6.378;2023-08-31T13:55:17;4.53;;;1.77;;
53775;SDS011;44276;49.534;6.378;2023-08-31T13:57:45;7.95;;;1.63;;
53775;SDS011;44276;49.534;6.378;2023-08-31T14:00:14;7.30;;;1.65;;
53775;SDS011;44276;49.534;6.378;2023-08-31T14:02:43;5.30;;;2.15;;
53775;SDS011;44276;49.534;6.378;2023-08-31T14:05:11;5.75;;;1.73;;
53775;SDS011;44276;49.534;6.378;2023-08-31T14:07:41;4.32;;;2.17;;
53775;SDS011;44276;49.534;6.378;2023-08-31T14:10:10;15.27;;;1.98;;
53775;SDS011;44276;49.534;6.378;2023-08-31T14:12:39;10.82;;;3.30;;
53775;SDS011;44276;49.534;6.378;2023-08-31T14:15:07;9.80;;;2.20;;
53775;SDS011;44276;49.534;6.378;2023-08-31T14:17:35;6.13;;;1.48;;
53775;SDS011;44276;49.534;6.378;2023-08-31T14:20:04;6.40;;;2.17;;
53775;SDS011;44276;49.534;6.378;2023-08-31T14:22:35;9.68;;;2.28;;
53775;SDS011;44276;49.534;6.378;2023-08-31T14:25:04;3.97;;;1.95;;
53775;SDS011;44276;49.534;6.378;2023-08-31T14:27:35;5.30;;;2.33;;
53775;SDS011;44276;49.534;6.378;2023-08-31T14:30:04;5.50;;;1.73;;
53775;SDS011;44276;49.534;6.378;2023-08-31T14:32:33;4.32;;;1.40;;
53775;SDS011;44276;49.534;6.378;2023-08-31T14:35:02;6.72;;;2.15;;
53775;SDS011;44276;49.534;6.378;2023-08-31T14:37:32;8.10;;;1.98;;
53775;SDS011;44276;49.534;6.378;2023-08-31T14:40:00;15.02;;;2.28;;
53775;SDS011;44276;49.534;6.378;2023-08-31T14:42:29;10.88;;;1.80;;
53775;SDS011;44276;49.534;6.378;2023-08-31T14:44:59;9.93;;;2.35;;
53775;SDS011;44276;49.534;6.378;2023-08-31T14:47:27;4.13;;;1.38;;
53775;SDS011;44276;49.534;6.378;2023-08-31T14:49:55;4.43;;;1.85;;
53775;SDS011;44276;49.534;6.378;2023-08-31T14:52:23;13.07;;;3.25;;